sensor_id;sensor_type;location;lat;lon;timestamp;P1;durP1;ratioP1;P2;durP2;ratioP2
75152;SDS011;63734;45.218;36.708;2022-11-11T00:01:40;79.75;;;25.17;;
75152;SDS011;63734;45.218;36.708;2022-11-11T00:04:25;60.92;;;21.85;;
75152;SDS011;63734;45.218;36.708;2022-11-11T00:07:10;54.92;;;19.13;;
75152;SDS011;63734;45.218;36.708;2022-11-11T00:09:54;48.72;;;17.63;;
75152;SDS011;63734;45.218;36.708;2022-11-11T00:12:39;42.00;;;16.45;;
75152;SDS011;63734;45.218;36.708;2022-11-11T00:15:23;66.93;;;23.10;;
75152;SDS011;63734;45.218;36.708;2022-11-11T00:18:11;61.78;;;20.40;;
75152;SDS011;63734;45.218;36.708;2022-11-11T00:21:14;54.63;;;19.42;;
75152;SDS011;63734;45.218;36.708;2022-11-11T00:24:27;48.78;;;19.38;;
75152;SDS011;63734;45.218;36.708;2022-11-11T00:27:31;45.05;;;16.70;;
75152;SDS011;63734;45.218;36.708;2022-11-11T00:30:16;45.00;;;16.08;;
75152;SDS011;63734;45.218;36.708;2022-11-11T00:33:00;50.05;;;18.45;;
75152;SDS011;63734;45.218;36.708;2022-11-11T00:35:45;65.97;;;21.77;;
75152;SDS011;63734;45.218;36.708;2022-11-11T00:38:38;50.63;;;20.17;;
75152;SDS011;63734;45.218;36.708;2022-11-11T00:41:30;61.40;;;22.20;;
75152;SDS011;63734;45.218;36.708;2022-11-11T00:44:15;57.30;;;20.52;;
75152;SDS011;63734;45.218;36.708;2022-11-11T00:46:59;67.22;;;22.70;;
75152;SDS011;63734;45.218;36.708;2022-11-11T00:50:21;72.63;;;24.63;;
75152;SDS011;63734;45.218;36.708;2022-11-11T00:53:27;48.03;;;17.10;;
75152;SDS011;63734;45.218;36.708;2022-11-11T00:56:15;55.00;;;18.95;;
75152;SDS011;63734;45.218;36.708;2022-11-11T00:59:00;73.60;;;24.50;;
75152;SDS011;63734;45.218;36.708;2022-11-11T01:01:44;53.33;;;19.42;;
75152;SDS011;63734;45.218;36.708;2022-11-11T01:04:29;59.08;;;21.70;;
75152;SDS011;63734;45.218;36.708;2022-11-11T01:07:13;56.17;;;19.83;;
75152;SDS011;63734;45.218;36.708;2022-11-11T01:09:58;41.60;;;13.98;;
75152;SDS011;63734;45.218;36.708;2022-11-11T01:12:42;27.48;;;12.30;;
75152;SDS011;63734;45.218;36.708;2022-11-11T01:15:27;69.35;;;22.10;;
75152;SDS011;63734;45.218;36.708;2022-11-11T01:18:12;62.50;;;22.23;;
75152;SDS011;63734;45.218;36.708;2022-11-11T01:23:47;78.07;;;23.50;;
75152;SDS011;63734;45.218;36.708;2022-11-11T01:26:32;77.28;;;23.58;;
75152;SDS011;63734;45.218;36.708;2022-11-11T01:29:16;60.10;;;19.40;;
75152;SDS011;63734;45.218;36.708;2022-11-11T01:32:01;67.80;;;24.63;;
75152;SDS011;63734;45.218;36.708;2022-11-11T01:34:46;61.72;;;19.48;;
75152;SDS011;63734;45.218;36.708;2022-11-11T01:37:34;68.05;;;22.80;;
75152;SDS011;63734;45.218;36.708;2022-11-11T01:40:18;65.80;;;23.35;;
75152;SDS011;63734;45.218;36.708;2022-11-11T01:48:39;77.05;;;23.00;;
75152;SDS011;63734;45.218;36.708;2022-11-11T01:54:40;39.30;;;14.63;;
75152;SDS011;63734;45.218;36.708;2022-11-11T01:57:31;74.80;;;23.25;;
75152;SDS011;63734;45.218;36.708;2022-11-11T02:00:20;79.40;;;23.85;;
75152;SDS011;63734;45.218;36.708;2022-11-11T02:03:05;69.47;;;21.45;;
75152;SDS011;63734;45.218;36.708;2022-11-11T02:05:52;59.83;;;20.45;;
75152;SDS011;63734;45.218;36.708;2022-11-11T02:08:40;85.25;;;25.00;;
75152;SDS011;63734;45.218;36.708;2022-11-11T02:11:25;63.58;;;21.60;;
75152;SDS011;63734;45.218;36.708;2022-11-11T02:14:29;59.55;;;20.60;;
75152;SDS011;63734;45.218;36.708;2022-11-11T02:17:20;64.72;;;21.65;;
75152;SDS011;63734;45.218;36.708;2022-11-11T02:20:04;77.32;;;24.42;;
75152;SDS011;63734;45.218;36.708;2022-11-11T02:22:59;65.25;;;20.73;;
75152;SDS011;63734;45.218;36.708;2022-11-11T02:26:11;54.85;;;18.90;;
75152;SDS011;63734;45.218;36.708;2022-11-11T02:29:00;43.63;;;15.27;;
75152;SDS011;63734;45.218;36.708;2022-11-11T02:31:46;48.50;;;17.30;;
75152;SDS011;63734;45.218;36.708;2022-11-11T02:34:31;53.80;;;18.65;;
75152;SDS011;63734;45.218;36.708;2022-11-11T02:37:18;64.95;;;21.38;;
75152;SDS011;63734;45.218;36.708;2022-11-11T02:40:05;54.83;;;18.75;;
75152;SDS011;63734;45.218;36.708;2022-11-11T02:42:51;65.32;;;17.45;;
75152;SDS011;63734;45.218;36.708;2022-11-11T02:45:35;53.70;;;18.23;;
75152;SDS011;63734;45.218;36.708;2022-11-11T02:48:20;53.53;;;18.13;;
75152;SDS011;63734;45.218;36.708;2022-11-11T02:51:05;60.53;;;19.75;;
75152;SDS011;63734;45.218;36.708;2022-11-11T02:53:51;68.68;;;20.35;;
75152;SDS011;63734;45.218;36.708;2022-11-11T02:56:41;68.60;;;19.17;;
75152;SDS011;63734;45.218;36.708;2022-11-11T02:59:44;78.72;;;21.52;;
75152;SDS011;63734;45.218;36.708;2022-11-11T03:02:29;90.95;;;23.63;;
75152;SDS011;63734;45.218;36.708;2022-11-11T03:05:13;108.57;;;24.83;;
75152;SDS011;63734;45.218;36.708;2022-11-11T03:07:58;134.93;;;25.77;;
75152;SDS011;63734;45.218;36.708;2022-11-11T03:10:42;87.30;;;20.70;;
75152;SDS011;63734;45.218;36.708;2022-11-11T03:13:27;116.20;;;23.80;;
75152;SDS011;63734;45.218;36.708;2022-11-11T03:16:11;266.73;;;22.58;;
75152;SDS011;63734;45.218;36.708;2022-11-11T03:19:16;242.30;;;28.38;;
75152;SDS011;63734;45.218;36.708;2022-11-11T03:22:00;322.70;;;28.05;;
75152;SDS011;63734;45.218;36.708;2022-11-11T03:24:46;80.85;;;12.32;;
75152;SDS011;63734;45.218;36.708;2022-11-11T03:27:48;310.45;;;24.38;;
75152;SDS011;63734;45.218;36.708;2022-11-11T03:30:33;189.68;;;16.88;;
75152;SDS011;63734;45.218;36.708;2022-11-11T03:33:17;213.23;;;17.92;;
75152;SDS011;63734;45.218;36.708;2022-11-11T03:36:02;221.57;;;18.95;;
75152;SDS011;63734;45.218;36.708;2022-11-11T03:38:46;289.70;;;22.77;;
75152;SDS011;63734;45.218;36.708;2022-11-11T03:41:31;269.45;;;19.08;;
75152;SDS011;63734;45.218;36.708;2022-11-11T03:44:15;374.45;;;27.10;;
75152;SDS011;63734;45.218;36.708;2022-11-11T03:46:59;261.58;;;21.90;;
75152;SDS011;63734;45.218;36.708;2022-11-11T03:49:44;187.80;;;16.80;;
75152;SDS011;63734;45.218;36.708;2022-11-11T03:52:28;392.83;;;25.63;;
75152;SDS011;63734;45.218;36.708;2022-11-11T03:55:13;445.45;;;28.55;;
75152;SDS011;63734;45.218;36.708;2022-11-11T03:57:57;380.10;;;24.27;;
75152;SDS011;63734;45.218;36.708;2022-11-11T04:00:42;577.97;;;33.35;;
75152;SDS011;63734;45.218;36.708;2022-11-11T04:03:27;240.90;;;18.15;;
75152;SDS011;63734;45.218;36.708;2022-11-11T04:06:29;437.10;;;26.73;;
75152;SDS011;63734;45.218;36.708;2022-11-11T04:09:32;382.83;;;24.27;;
75152;SDS011;63734;45.218;36.708;2022-11-11T04:12:35;302.13;;;19.98;;
75152;SDS011;63734;45.218;36.708;2022-11-11T04:15:39;182.43;;;15.35;;
75152;SDS011;63734;45.218;36.708;2022-11-11T04:18:42;130.25;;;13.07;;
75152;SDS011;63734;45.218;36.708;2022-11-11T04:21:45;429.42;;;23.42;;
75152;SDS011;63734;45.218;36.708;2022-11-11T04:24:30;347.52;;;21.48;;
75152;SDS011;63734;45.218;36.708;2022-11-11T04:27:33;527.20;;;28.65;;
75152;SDS011;63734;45.218;36.708;2022-11-11T04:30:17;72.85;;;10.98;;
75152;SDS011;63734;45.218;36.708;2022-11-11T04:33:02;154.55;;;14.65;;
75152;SDS011;63734;45.218;36.708;2022-11-11T04:35:49;269.55;;;19.10;;
75152;SDS011;63734;45.218;36.708;2022-11-11T04:38:34;73.60;;;11.35;;
75152;SDS011;63734;45.218;36.708;2022-11-11T04:41:36;247.18;;;16.98;;
75152;SDS011;63734;45.218;36.708;2022-11-11T04:44:21;281.45;;;20.38;;
75152;SDS011;63734;45.218;36.708;2022-11-11T04:47:24;319.08;;;18.73;;
75152;SDS011;63734;45.218;36.708;2022-11-11T04:50:08;358.88;;;21.13;;
75152;SDS011;63734;45.218;36.708;2022-11-11T04:52:53;157.80;;;13.52;;
75152;SDS011;63734;45.218;36.708;2022-11-11T04:55:41;275.75;;;18.05;;
75152;SDS011;63734;45.218;36.708;2022-11-11T04:58:45;417.63;;;25.20;;
75152;SDS011;63734;45.218;36.708;2022-11-11T05:01:29;126.75;;;13.20;;
75152;SDS011;63734;45.218;36.708;2022-11-11T05:04:32;61.47;;;10.05;;
75152;SDS011;63734;45.218;36.708;2022-11-11T05:07:16;272.70;;;17.63;;
75152;SDS011;63734;45.218;36.708;2022-11-11T05:10:19;293.63;;;19.38;;
75152;SDS011;63734;45.218;36.708;2022-11-11T05:13:04;407.45;;;24.73;;
75152;SDS011;63734;45.218;36.708;2022-11-11T05:16:10;356.38;;;21.70;;
75152;SDS011;63734;45.218;36.708;2022-11-11T05:19:18;301.70;;;21.55;;
75152;SDS011;63734;45.218;36.708;2022-11-11T05:22:40;211.80;;;14.85;;
75152;SDS011;63734;45.218;36.708;2022-11-11T05:25:26;189.57;;;13.07;;
75152;SDS011;63734;45.218;36.708;2022-11-11T05:28:12;385.88;;;21.48;;
75152;SDS011;63734;45.218;36.708;2022-11-11T05:30:57;419.60;;;23.50;;
75152;SDS011;63734;45.218;36.708;2022-11-11T05:33:42;326.35;;;21.42;;
75152;SDS011;63734;45.218;36.708;2022-11-11T05:36:26;309.27;;;20.17;;
75152;SDS011;63734;45.218;36.708;2022-11-11T05:39:11;73.13;;;9.70;;
75152;SDS011;63734;45.218;36.708;2022-11-11T05:41:55;419.05;;;22.60;;
75152;SDS011;63734;45.218;36.708;2022-11-11T05:44:40;497.83;;;28.73;;
75152;SDS011;63734;45.218;36.708;2022-11-11T05:47:25;186.23;;;14.25;;
75152;SDS011;63734;45.218;36.708;2022-11-11T05:50:09;314.50;;;21.95;;
75152;SDS011;63734;45.218;36.708;2022-11-11T05:52:54;170.82;;;14.27;;
75152;SDS011;63734;45.218;36.708;2022-11-11T05:55:38;342.05;;;20.60;;
75152;SDS011;63734;45.218;36.708;2022-11-11T05:58:23;320.35;;;21.58;;
75152;SDS011;63734;45.218;36.708;2022-11-11T06:01:08;461.77;;;27.25;;
75152;SDS011;63734;45.218;36.708;2022-11-11T06:03:53;511.55;;;28.60;;
75152;SDS011;63734;45.218;36.708;2022-11-11T06:06:37;458.38;;;25.10;;
75152;SDS011;63734;45.218;36.708;2022-11-11T06:09:22;247.60;;;17.65;;
75152;SDS011;63734;45.218;36.708;2022-11-11T06:12:06;453.63;;;27.30;;
75152;SDS011;63734;45.218;36.708;2022-11-11T06:14:51;399.73;;;25.27;;
75152;SDS011;63734;45.218;36.708;2022-11-11T06:17:35;331.17;;;23.30;;
75152;SDS011;63734;45.218;36.708;2022-11-11T06:20:21;505.40;;;30.92;;
75152;SDS011;63734;45.218;36.708;2022-11-11T06:23:05;113.53;;;15.80;;
75152;SDS011;63734;45.218;36.708;2022-11-11T06:25:50;166.25;;;17.17;;
75152;SDS011;63734;45.218;36.708;2022-11-11T06:28:54;220.93;;;17.40;;
75152;SDS011;63734;45.218;36.708;2022-11-11T06:31:39;151.82;;;13.52;;
75152;SDS011;63734;45.218;36.708;2022-11-11T06:34:23;148.70;;;13.20;;
75152;SDS011;63734;45.218;36.708;2022-11-11T06:37:08;393.55;;;27.20;;
75152;SDS011;63734;45.218;36.708;2022-11-11T06:39:52;314.20;;;23.70;;
75152;SDS011;63734;45.218;36.708;2022-11-11T06:42:37;251.38;;;17.00;;
75152;SDS011;63734;45.218;36.708;2022-11-11T06:45:21;331.38;;;24.60;;
75152;SDS011;63734;45.218;36.708;2022-11-11T06:48:06;115.43;;;13.57;;
75152;SDS011;63734;45.218;36.708;2022-11-11T06:50:51;186.75;;;16.02;;
75152;SDS011;63734;45.218;36.708;2022-11-11T06:53:36;249.88;;;21.02;;
75152;SDS011;63734;45.218;36.708;2022-11-11T06:56:20;554.38;;;32.97;;
75152;SDS011;63734;45.218;36.708;2022-11-11T06:59:05;202.65;;;16.75;;
75152;SDS011;63734;45.218;36.708;2022-11-11T07:01:49;210.27;;;16.98;;
75152;SDS011;63734;45.218;36.708;2022-11-11T07:04:34;113.50;;;13.48;;
75152;SDS011;63734;45.218;36.708;2022-11-11T07:07:18;110.68;;;16.08;;
75152;SDS011;63734;45.218;36.708;2022-11-11T07:10:03;203.95;;;15.60;;
75152;SDS011;63734;45.218;36.708;2022-11-11T07:12:49;53.17;;;12.75;;
75152;SDS011;63734;45.218;36.708;2022-11-11T07:15:34;29.15;;;10.90;;
75152;SDS011;63734;45.218;36.708;2022-11-11T07:18:19;62.30;;;16.52;;
75152;SDS011;63734;45.218;36.708;2022-11-11T07:21:04;72.15;;;17.60;;
75152;SDS011;63734;45.218;36.708;2022-11-11T07:23:48;67.30;;;17.58;;
75152;SDS011;63734;45.218;36.708;2022-11-11T07:26:33;43.17;;;13.02;;
75152;SDS011;63734;45.218;36.708;2022-11-11T07:29:17;35.45;;;10.25;;
75152;SDS011;63734;45.218;36.708;2022-11-11T07:32:02;43.50;;;13.68;;
75152;SDS011;63734;45.218;36.708;2022-11-11T07:34:47;76.38;;;15.93;;
75152;SDS011;63734;45.218;36.708;2022-11-11T07:37:34;40.83;;;12.50;;
75152;SDS011;63734;45.218;36.708;2022-11-11T07:40:19;21.98;;;9.65;;
75152;SDS011;63734;45.218;36.708;2022-11-11T07:43:04;68.70;;;16.58;;
75152;SDS011;63734;45.218;36.708;2022-11-11T07:45:48;81.70;;;15.25;;
75152;SDS011;63734;45.218;36.708;2022-11-11T07:48:33;37.28;;;12.35;;
75152;SDS011;63734;45.218;36.708;2022-11-11T07:51:17;61.78;;;16.10;;
75152;SDS011;63734;45.218;36.708;2022-11-11T07:54:02;41.65;;;13.43;;
75152;SDS011;63734;45.218;36.708;2022-11-11T07:56:46;45.03;;;15.43;;
75152;SDS011;63734;45.218;36.708;2022-11-11T07:59:31;44.25;;;15.63;;
75152;SDS011;63734;45.218;36.708;2022-11-11T08:02:15;29.58;;;12.00;;
75152;SDS011;63734;45.218;36.708;2022-11-11T08:05:00;53.08;;;16.75;;
75152;SDS011;63734;45.218;36.708;2022-11-11T08:07:44;43.75;;;14.10;;
75152;SDS011;63734;45.218;36.708;2022-11-11T08:10:29;39.60;;;14.00;;
75152;SDS011;63734;45.218;36.708;2022-11-11T08:13:13;46.50;;;15.88;;
75152;SDS011;63734;45.218;36.708;2022-11-11T08:16:16;43.85;;;15.80;;
75152;SDS011;63734;45.218;36.708;2022-11-11T08:19:00;50.80;;;17.70;;
75152;SDS011;63734;45.218;36.708;2022-11-11T08:21:45;37.65;;;14.20;;
75152;SDS011;63734;45.218;36.708;2022-11-11T08:24:29;29.17;;;11.98;;
75152;SDS011;63734;45.218;36.708;2022-11-11T08:27:14;46.05;;;15.75;;
75152;SDS011;63734;45.218;36.708;2022-11-11T08:29:58;41.90;;;15.15;;
75152;SDS011;63734;45.218;36.708;2022-11-11T08:32:43;36.10;;;13.55;;
75152;SDS011;63734;45.218;36.708;2022-11-11T08:35:27;47.78;;;16.73;;
75152;SDS011;63734;45.218;36.708;2022-11-11T08:38:12;24.23;;;10.82;;
75152;SDS011;63734;45.218;36.708;2022-11-11T08:41:00;36.45;;;12.90;;
75152;SDS011;63734;45.218;36.708;2022-11-11T08:43:45;38.22;;;13.88;;
75152;SDS011;63734;45.218;36.708;2022-11-11T08:46:30;27.83;;;11.75;;
75152;SDS011;63734;45.218;36.708;2022-11-11T08:49:14;30.00;;;12.48;;
75152;SDS011;63734;45.218;36.708;2022-11-11T08:51:59;33.88;;;13.35;;
75152;SDS011;63734;45.218;36.708;2022-11-11T08:54:43;37.55;;;15.20;;
75152;SDS011;63734;45.218;36.708;2022-11-11T08:57:28;36.97;;;13.77;;
75152;SDS011;63734;45.218;36.708;2022-11-11T09:00:13;25.33;;;11.43;;
75152;SDS011;63734;45.218;36.708;2022-11-11T09:03:01;30.65;;;13.18;;
75152;SDS011;63734;45.218;36.708;2022-11-11T09:05:47;34.83;;;14.25;;
75152;SDS011;63734;45.218;36.708;2022-11-11T09:08:32;33.78;;;14.30;;
75152;SDS011;63734;45.218;36.708;2022-11-11T09:11:16;25.90;;;10.77;;
75152;SDS011;63734;45.218;36.708;2022-11-11T09:14:01;31.67;;;12.77;;
75152;SDS011;63734;45.218;36.708;2022-11-11T09:16:46;27.90;;;10.07;;
75152;SDS011;63734;45.218;36.708;2022-11-11T09:19:30;29.95;;;12.73;;
75152;SDS011;63734;45.218;36.708;2022-11-11T09:22:15;25.67;;;10.43;;
75152;SDS011;63734;45.218;36.708;2022-11-11T09:24:59;29.65;;;12.40;;
75152;SDS011;63734;45.218;36.708;2022-11-11T09:27:43;28.55;;;12.90;;
75152;SDS011;63734;45.218;36.708;2022-11-11T09:30:37;29.48;;;12.10;;
75152;SDS011;63734;45.218;36.708;2022-11-11T09:33:22;35.53;;;14.85;;
75152;SDS011;63734;45.218;36.708;2022-11-11T09:36:07;37.97;;;15.20;;
75152;SDS011;63734;45.218;36.708;2022-11-11T09:38:54;28.05;;;12.63;;
75152;SDS011;63734;45.218;36.708;2022-11-11T09:48:03;32.73;;;14.17;;
75152;SDS011;63734;45.218;36.708;2022-11-11T09:51:03;33.55;;;14.43;;
75152;SDS011;63734;45.218;36.708;2022-11-11T09:53:55;30.88;;;13.68;;
75152;SDS011;63734;45.218;36.708;2022-11-11T09:56:46;34.55;;;13.73;;
75152;SDS011;63734;45.218;36.708;2022-11-11T09:59:42;30.67;;;12.93;;
75152;SDS011;63734;45.218;36.708;2022-11-11T10:05:24;30.30;;;13.77;;
75152;SDS011;63734;45.218;36.708;2022-11-11T10:08:16;25.73;;;13.05;;
75152;SDS011;63734;45.218;36.708;2022-11-11T10:11:17;28.95;;;12.85;;
75152;SDS011;63734;45.218;36.708;2022-11-11T10:14:08;23.80;;;11.85;;
75152;SDS011;63734;45.218;36.708;2022-11-11T10:16:57;28.20;;;13.38;;
75152;SDS011;63734;45.218;36.708;2022-11-11T10:23:26;22.27;;;11.30;;
75152;SDS011;63734;45.218;36.708;2022-11-11T10:26:17;24.98;;;11.43;;
75152;SDS011;63734;45.218;36.708;2022-11-11T10:29:04;23.13;;;10.30;;
75152;SDS011;63734;45.218;36.708;2022-11-11T10:32:04;25.75;;;12.65;;
75152;SDS011;63734;45.218;36.708;2022-11-11T10:35:28;22.58;;;9.60;;
75152;SDS011;63734;45.218;36.708;2022-11-11T10:38:16;22.63;;;10.32;;
75152;SDS011;63734;45.218;36.708;2022-11-11T10:44:15;21.90;;;10.70;;
75152;SDS011;63734;45.218;36.708;2022-11-11T10:50:23;24.63;;;12.23;;
75152;SDS011;63734;45.218;36.708;2022-11-11T10:53:24;26.02;;;11.95;;
75152;SDS011;63734;45.218;36.708;2022-11-11T10:59:23;25.98;;;10.98;;
75152;SDS011;63734;45.218;36.708;2022-11-11T11:05:12;27.50;;;11.35;;
75152;SDS011;63734;45.218;36.708;2022-11-11T11:08:01;29.88;;;12.93;;
75152;SDS011;63734;45.218;36.708;2022-11-11T11:13:39;27.92;;;12.20;;
75152;SDS011;63734;45.218;36.708;2022-11-11T11:16:29;29.25;;;13.15;;
75152;SDS011;63734;45.218;36.708;2022-11-11T11:22:06;27.08;;;12.10;;
75152;SDS011;63734;45.218;36.708;2022-11-11T11:24:51;23.33;;;10.05;;
75152;SDS011;63734;45.218;36.708;2022-11-11T11:28:04;31.05;;;13.18;;
75152;SDS011;63734;45.218;36.708;2022-11-11T11:30:58;27.70;;;11.85;;
75152;SDS011;63734;45.218;36.708;2022-11-11T11:33:49;20.30;;;10.25;;
75152;SDS011;63734;45.218;36.708;2022-11-11T11:36:38;30.35;;;12.38;;
75152;SDS011;63734;45.218;36.708;2022-11-11T11:39:32;32.55;;;13.25;;
75152;SDS011;63734;45.218;36.708;2022-11-11T11:42:35;31.90;;;12.95;;
75152;SDS011;63734;45.218;36.708;2022-11-11T11:45:28;30.33;;;13.30;;
75152;SDS011;63734;45.218;36.708;2022-11-11T11:51:10;24.10;;;11.95;;
75152;SDS011;63734;45.218;36.708;2022-11-11T11:54:14;25.17;;;11.32;;
75152;SDS011;63734;45.218;36.708;2022-11-11T11:57:19;30.05;;;11.90;;
75152;SDS011;63734;45.218;36.708;2022-11-11T12:00:24;30.42;;;12.98;;
75152;SDS011;63734;45.218;36.708;2022-11-11T12:03:26;22.90;;;10.38;;
75152;SDS011;63734;45.218;36.708;2022-11-11T12:12:52;22.77;;;9.43;;
75152;SDS011;63734;45.218;36.708;2022-11-11T12:15:51;23.60;;;11.32;;
75152;SDS011;63734;45.218;36.708;2022-11-11T12:22:11;17.75;;;8.52;;
75152;SDS011;63734;45.218;36.708;2022-11-11T12:31:09;29.80;;;12.90;;
75152;SDS011;63734;45.218;36.708;2022-11-11T12:48:55;29.35;;;12.38;;
75152;SDS011;63734;45.218;36.708;2022-11-11T13:07:32;29.52;;;10.63;;
75152;SDS011;63734;45.218;36.708;2022-11-11T13:10:58;20.60;;;7.15;;
75152;SDS011;63734;45.218;36.708;2022-11-11T13:16:57;30.90;;;11.95;;
75152;SDS011;63734;45.218;36.708;2022-11-11T13:19:57;33.22;;;11.70;;
75152;SDS011;63734;45.218;36.708;2022-11-11T13:22:48;23.50;;;10.05;;
75152;SDS011;63734;45.218;36.708;2022-11-11T13:25:33;27.10;;;10.70;;
75152;SDS011;63734;45.218;36.708;2022-11-11T13:28:55;26.00;;;10.65;;
75152;SDS011;63734;45.218;36.708;2022-11-11T13:31:36;37.70;;;13.40;;
75152;SDS011;63734;45.218;36.708;2022-11-11T13:34:23;42.55;;;16.48;;
75152;SDS011;63734;45.218;36.708;2022-11-11T13:37:16;42.25;;;16.33;;
75152;SDS011;63734;45.218;36.708;2022-11-11T13:40:05;30.65;;;13.93;;
75152;SDS011;63734;45.218;36.708;2022-11-11T13:43:13;34.63;;;14.15;;
75152;SDS011;63734;45.218;36.708;2022-11-11T13:46:04;24.90;;;12.35;;
75152;SDS011;63734;45.218;36.708;2022-11-11T13:48:49;34.10;;;14.43;;
75152;SDS011;63734;45.218;36.708;2022-11-11T13:51:36;34.53;;;14.23;;
75152;SDS011;63734;45.218;36.708;2022-11-11T13:54:25;36.47;;;14.52;;
75152;SDS011;63734;45.218;36.708;2022-11-11T13:57:33;27.70;;;12.68;;
75152;SDS011;63734;45.218;36.708;2022-11-11T14:00:35;29.92;;;13.45;;
75152;SDS011;63734;45.218;36.708;2022-11-11T14:09:00;33.92;;;14.85;;
75152;SDS011;63734;45.218;36.708;2022-11-11T14:11:45;34.42;;;13.38;;
75152;SDS011;63734;45.218;36.708;2022-11-11T14:17:18;38.17;;;14.90;;
75152;SDS011;63734;45.218;36.708;2022-11-11T14:23:33;35.03;;;13.90;;
75152;SDS011;63734;45.218;36.708;2022-11-11T14:26:24;32.92;;;14.30;;
75152;SDS011;63734;45.218;36.708;2022-11-11T14:29:15;32.58;;;13.65;;
75152;SDS011;63734;45.218;36.708;2022-11-11T14:32:38;39.70;;;15.07;;
75152;SDS011;63734;45.218;36.708;2022-11-11T14:47:20;37.20;;;14.90;;
75152;SDS011;63734;45.218;36.708;2022-11-11T14:56:00;38.83;;;14.93;;
75152;SDS011;63734;45.218;36.708;2022-11-11T14:58:44;33.78;;;14.27;;
75152;SDS011;63734;45.218;36.708;2022-11-11T15:01:29;28.80;;;12.20;;
75152;SDS011;63734;45.218;36.708;2022-11-11T15:04:14;37.15;;;14.55;;
75152;SDS011;63734;45.218;36.708;2022-11-11T15:06:59;45.55;;;16.70;;
75152;SDS011;63734;45.218;36.708;2022-11-11T15:13:00;32.70;;;13.02;;
75152;SDS011;63734;45.218;36.708;2022-11-11T15:16:12;31.00;;;14.02;;
75152;SDS011;63734;45.218;36.708;2022-11-11T15:22:23;35.20;;;14.52;;
75152;SDS011;63734;45.218;36.708;2022-11-11T15:31:16;36.78;;;13.40;;
75152;SDS011;63734;45.218;36.708;2022-11-11T15:34:24;28.70;;;11.57;;
75152;SDS011;63734;45.218;36.708;2022-11-11T15:37:18;41.88;;;15.32;;
75152;SDS011;63734;45.218;36.708;2022-11-11T15:40:05;46.03;;;17.25;;
75152;SDS011;63734;45.218;36.708;2022-11-11T15:42:50;30.17;;;13.77;;
75152;SDS011;63734;45.218;36.708;2022-11-11T15:45:36;30.40;;;12.82;;
75152;SDS011;63734;45.218;36.708;2022-11-11T15:48:42;24.85;;;11.02;;
75152;SDS011;63734;45.218;36.708;2022-11-11T15:51:27;21.65;;;10.23;;
75152;SDS011;63734;45.218;36.708;2022-11-11T15:54:18;42.88;;;17.20;;
75152;SDS011;63734;45.218;36.708;2022-11-11T16:00:34;30.58;;;12.10;;
75152;SDS011;63734;45.218;36.708;2022-11-11T16:03:19;27.67;;;10.48;;
75152;SDS011;63734;45.218;36.708;2022-11-11T16:06:16;30.05;;;10.82;;
75152;SDS011;63734;45.218;36.708;2022-11-11T16:09:00;43.85;;;16.17;;
75152;SDS011;63734;45.218;36.708;2022-11-11T16:11:46;42.22;;;15.57;;
75152;SDS011;63734;45.218;36.708;2022-11-11T16:14:33;39.03;;;15.63;;
75152;SDS011;63734;45.218;36.708;2022-11-11T16:17:25;45.10;;;15.32;;
75152;SDS011;63734;45.218;36.708;2022-11-11T16:23:05;33.10;;;13.73;;
75152;SDS011;63734;45.218;36.708;2022-11-11T16:25:51;31.92;;;12.85;;
75152;SDS011;63734;45.218;36.708;2022-11-11T16:28:37;32.80;;;12.30;;
75152;SDS011;63734;45.218;36.708;2022-11-11T16:37:12;36.17;;;13.98;;
75152;SDS011;63734;45.218;36.708;2022-11-11T16:40:44;41.30;;;14.40;;
75152;SDS011;63734;45.218;36.708;2022-11-11T16:43:16;37.90;;;15.02;;
75152;SDS011;63734;45.218;36.708;2022-11-11T16:46:07;40.75;;;15.48;;
75152;SDS011;63734;45.218;36.708;2022-11-11T16:48:56;38.67;;;15.00;;
75152;SDS011;63734;45.218;36.708;2022-11-11T16:51:45;37.55;;;13.25;;
75152;SDS011;63734;45.218;36.708;2022-11-11T16:54:32;31.48;;;12.95;;
75152;SDS011;63734;45.218;36.708;2022-11-11T16:57:27;34.55;;;13.00;;
75152;SDS011;63734;45.218;36.708;2022-11-11T17:00:16;30.48;;;12.98;;
75152;SDS011;63734;45.218;36.708;2022-11-11T17:06:09;36.38;;;13.77;;
75152;SDS011;63734;45.218;36.708;2022-11-11T17:08:54;43.65;;;16.27;;
75152;SDS011;63734;45.218;36.708;2022-11-11T17:14:23;43.58;;;16.17;;
75152;SDS011;63734;45.218;36.708;2022-11-11T17:17:09;36.97;;;13.82;;
75152;SDS011;63734;45.218;36.708;2022-11-11T17:19:56;33.25;;;11.88;;
75152;SDS011;63734;45.218;36.708;2022-11-11T17:22:55;38.88;;;15.20;;
75152;SDS011;63734;45.218;36.708;2022-11-11T17:25:41;29.70;;;12.27;;
75152;SDS011;63734;45.218;36.708;2022-11-11T17:28:29;36.00;;;14.90;;
75152;SDS011;63734;45.218;36.708;2022-11-11T17:31:16;46.95;;;16.55;;
75152;SDS011;63734;45.218;36.708;2022-11-11T17:34:19;46.72;;;15.48;;
75152;SDS011;63734;45.218;36.708;2022-11-11T17:37:03;41.72;;;15.35;;
75152;SDS011;63734;45.218;36.708;2022-11-11T17:39:48;40.67;;;16.33;;
75152;SDS011;63734;45.218;36.708;2022-11-11T17:42:34;42.88;;;16.48;;
75152;SDS011;63734;45.218;36.708;2022-11-11T17:45:19;40.35;;;15.30;;
75152;SDS011;63734;45.218;36.708;2022-11-11T17:48:03;43.92;;;16.23;;
75152;SDS011;63734;45.218;36.708;2022-11-11T17:50:49;34.63;;;12.40;;
75152;SDS011;63734;45.218;36.708;2022-11-11T17:53:34;29.08;;;13.38;;
75152;SDS011;63734;45.218;36.708;2022-11-11T17:56:20;40.75;;;14.93;;
75152;SDS011;63734;45.218;36.708;2022-11-11T17:59:11;41.70;;;16.20;;
75152;SDS011;63734;45.218;36.708;2022-11-11T18:01:58;29.48;;;12.15;;
75152;SDS011;63734;45.218;36.708;2022-11-11T18:04:44;29.00;;;11.13;;
75152;SDS011;63734;45.218;36.708;2022-11-11T18:07:29;30.90;;;12.45;;
75152;SDS011;63734;45.218;36.708;2022-11-11T18:10:15;40.72;;;14.95;;
75152;SDS011;63734;45.218;36.708;2022-11-11T18:13:05;41.92;;;15.90;;
75152;SDS011;63734;45.218;36.708;2022-11-11T18:15:51;39.78;;;14.75;;
75152;SDS011;63734;45.218;36.708;2022-11-11T18:18:37;38.40;;;15.13;;
75152;SDS011;63734;45.218;36.708;2022-11-11T18:21:25;46.47;;;15.48;;
75152;SDS011;63734;45.218;36.708;2022-11-11T18:24:10;25.95;;;11.43;;
75152;SDS011;63734;45.218;36.708;2022-11-11T18:26:55;32.30;;;13.75;;
75152;SDS011;63734;45.218;36.708;2022-11-11T18:29:40;36.20;;;14.02;;
75152;SDS011;63734;45.218;36.708;2022-11-11T18:32:26;34.08;;;13.20;;
75152;SDS011;63734;45.218;36.708;2022-11-11T18:35:10;32.33;;;13.02;;
75152;SDS011;63734;45.218;36.708;2022-11-11T18:37:56;29.27;;;12.25;;
75152;SDS011;63734;45.218;36.708;2022-11-11T18:40:42;31.15;;;11.98;;
75152;SDS011;63734;45.218;36.708;2022-11-11T18:43:26;29.55;;;12.55;;
75152;SDS011;63734;45.218;36.708;2022-11-11T18:46:13;26.48;;;11.93;;
75152;SDS011;63734;45.218;36.708;2022-11-11T18:49:06;37.03;;;14.07;;